createdAt,value
2018-07-14T00:02:16.789Z,101668.34
2018-07-14T00:04:45.631Z,101676.38
2018-07-14T00:07:14.439Z,101676.89
2018-07-14T00:09:43.296Z,101678.44
2018-07-14T00:12:12.118Z,101678.45
2018-07-14T00:14:40.945Z,101676.39
2018-07-14T00:17:09.803Z,101676.74
2018-07-14T00:19:38.629Z,101670.05
2018-07-14T00:22:07.483Z,101668.14
2018-07-14T00:24:36.313Z,101668.31
2018-07-14T00:27:05.146Z,101667.95
2018-07-14T00:29:33.973Z,101665.55
2018-07-14T00:32:02.834Z,101663.14
2018-07-14T00:34:31.665Z,101659.02
2018-07-14T00:37:00.485Z,101656.09
2018-07-14T00:39:29.359Z,101658.49
2018-07-14T00:41:58.276Z,101658.65
2018-07-14T00:44:27.217Z,101656.94
2018-07-14T00:46:56.051Z,101661.05
2018-07-14T00:49:24.889Z,101651.92
2018-07-14T00:51:53.746Z,101660.14
2018-07-14T00:54:22.600Z,101656.58
2018-07-14T00:56:51.427Z,101665.12
2018-07-14T00:59:20.274Z,101661.51
2018-07-14T01:01:49.138Z,101662.83
2018-07-14T01:04:17.984Z,101661.45
2018-07-14T01:06:46.892Z,101660.06
2018-07-14T01:09:15.724Z,101659.36
2018-07-14T01:11:44.559Z,101658.53
2018-07-14T01:14:13.497Z,101661.44
2018-07-14T01:16:42.546Z,101662.65
2018-07-14T01:19:11.394Z,101657.81
2018-07-14T01:21:40.227Z,101669.09
2018-07-14T01:24:09.089Z,101661.51
2018-07-14T01:26:37.978Z,101664.44
2018-07-14T01:29:06.811Z,101659.28
2018-07-14T01:31:35.641Z,101665.70
2018-07-14T01:34:04.467Z,101666.48
2018-07-14T01:36:33.298Z,101667.61
2018-07-14T01:39:02.138Z,101667.50
2018-07-14T01:41:30.959Z,101664.34
2018-07-14T01:43:59.804Z,101666.57
2018-07-14T01:46:28.651Z,101669.78
2018-07-14T01:48:59.122Z,101669.20
2018-07-14T01:51:27.980Z,101667.13
2018-07-14T01:53:56.799Z,101665.05
2018-07-14T01:56:25.605Z,101662.97
2018-07-14T01:58:54.463Z,101669.51
2018-07-14T02:01:23.302Z,101667.59
2018-07-14T02:03:52.148Z,101655.27
2018-07-14T02:06:20.986Z,101658.55
2018-07-14T02:08:49.838Z,101658.98
2018-07-14T02:12:13.363Z,101658.00
2018-07-14T02:14:42.206Z,101650.95
2018-07-14T02:17:11.062Z,101654.91
2018-07-14T02:19:39.903Z,101658.47
2018-07-14T02:22:08.730Z,101652.83
2018-07-14T02:24:37.548Z,101651.62
2018-07-14T02:27:06.377Z,101653.61
2018-07-14T02:29:35.212Z,101658.20
2018-07-14T02:32:04.164Z,101655.48
2018-07-14T02:34:33.027Z,101653.56
2018-07-14T02:37:01.872Z,101654.88
2018-07-14T02:39:30.714Z,101653.65
2018-07-14T02:41:59.575Z,101654.67
2018-07-14T02:44:28.385Z,101651.38
2018-07-14T02:46:57.218Z,101649.66
2018-07-14T02:49:26.062Z,101650.16
2018-07-14T02:51:54.937Z,101641.34
2018-07-14T02:54:23.792Z,101650.31
2018-07-14T02:56:59.801Z,101649.44
2018-07-14T02:59:28.643Z,101658.31
2018-07-14T03:01:57.475Z,101659.33
2018-07-14T03:04:26.292Z,101659.68
2018-07-14T03:06:55.135Z,101654.50
2018-07-14T03:09:23.950Z,101659.39
2018-07-14T03:11:52.797Z,101663.19
2018-07-14T03:14:21.649Z,101659.77
2018-07-14T03:16:50.474Z,101659.27
2018-07-14T03:19:19.448Z,101656.78
2018-07-14T03:21:48.276Z,101658.47
2018-07-14T03:24:17.162Z,101655.20
2018-07-14T03:26:46.008Z,101650.70
2018-07-14T03:29:14.854Z,101659.69
2018-07-14T03:31:43.704Z,101656.73
2018-07-14T03:34:12.553Z,101654.15
2018-07-14T03:36:41.479Z,101661.09
2018-07-14T03:39:10.337Z,101657.31
2018-07-14T03:41:42.403Z,101653.42
2018-07-14T03:44:11.249Z,101661.27
2018-07-14T03:46:40.077Z,101660.55
2018-07-14T03:49:08.954Z,101656.75
2018-07-14T03:51:37.777Z,101652.80
2018-07-14T03:54:06.642Z,101662.70
2018-07-14T03:56:35.493Z,101655.81
2018-07-14T03:59:04.474Z,101656.83
2018-07-14T04:01:33.351Z,101655.16
2018-07-14T04:04:11.008Z,101656.73
2018-07-14T04:06:39.960Z,101653.80
2018-07-14T04:09:08.714Z,101650.14
2018-07-14T04:11:37.550Z,101644.82
2018-07-14T04:14:06.411Z,101643.78
2018-07-14T04:16:35.250Z,101641.77
2018-07-14T04:19:04.095Z,101646.02
2018-07-14T04:21:33.043Z,101650.28
2018-07-14T04:24:01.921Z,101659.64
2018-07-14T04:27:28.622Z,101660.13
2018-07-14T04:29:57.656Z,101652.15
2018-07-14T04:32:26.502Z,101657.61
2018-07-14T04:34:55.448Z,101654.88
2018-07-14T04:37:24.310Z,101662.94
2018-07-14T04:39:53.131Z,101660.63
2018-07-14T04:42:22.037Z,101662.45
2018-07-14T04:44:50.858Z,101662.30
2018-07-14T04:47:19.715Z,101671.22
2018-07-14T04:49:48.695Z,101667.27
2018-07-14T04:52:17.539Z,101675.31
2018-07-14T04:54:46.376Z,101680.19
2018-07-14T04:57:15.248Z,101682.48
2018-07-14T04:59:44.201Z,101679.77
2018-07-14T05:02:13.035Z,101684.44
2018-07-14T05:04:41.875Z,101685.52
2018-07-14T05:07:10.729Z,101686.12
2018-07-14T05:09:39.585Z,101685.67
2018-07-14T05:12:08.758Z,101685.88
2018-07-14T05:14:37.618Z,101682.80
2018-07-14T05:17:06.438Z,101674.98
2018-07-14T05:19:35.475Z,101683.75
2018-07-14T05:22:04.372Z,101684.98
2018-07-14T05:24:33.207Z,101679.86
2018-07-14T05:27:02.068Z,101695.16
2018-07-14T05:29:30.908Z,101693.04
2018-07-14T05:31:59.766Z,101694.58
2018-07-14T05:34:31.828Z,101692.73
2018-07-14T05:37:00.680Z,101695.17
2018-07-14T05:39:29.499Z,101692.48
2018-07-14T05:41:58.355Z,101697.84
2018-07-14T05:44:27.196Z,101707.32
2018-07-14T05:46:56.106Z,101701.94
2018-07-14T05:49:24.926Z,101706.44
2018-07-14T05:51:53.764Z,101710.42
2018-07-14T05:54:22.616Z,101711.53
2018-07-14T05:57:46.144Z,101712.25
2018-07-14T06:00:14.979Z,101710.98
2018-07-14T06:02:43.791Z,101714.83
2018-07-14T06:05:12.592Z,101715.69
2018-07-14T06:07:41.468Z,101718.95
2018-07-14T06:10:10.350Z,101714.45
2018-07-14T06:12:39.189Z,101711.41
2018-07-14T06:15:08.043Z,101714.83
2018-07-14T06:17:36.891Z,101714.84
2018-07-14T06:20:07.537Z,101709.09
2018-07-14T06:22:36.377Z,101705.84
2018-07-14T06:25:05.222Z,101715.98
2018-07-14T06:27:34.059Z,101708.73
2018-07-14T06:30:02.923Z,101711.69
2018-07-14T06:32:31.734Z,101710.19
2018-07-14T06:35:00.578Z,101711.65
2018-07-14T06:37:29.411Z,101709.36
2018-07-14T06:39:58.268Z,101716.81
2018-07-14T06:45:56.446Z,101718.34
2018-07-14T06:48:25.299Z,101721.21
2018-07-14T06:50:54.124Z,101716.61
2018-07-14T06:53:22.969Z,101719.50
2018-07-14T06:55:51.833Z,101719.98
2018-07-14T06:58:20.692Z,101715.70
2018-07-14T07:00:49.508Z,101716.75
2018-07-14T07:03:18.349Z,101709.89
2018-07-14T07:05:47.166Z,101708.02
2018-07-14T07:08:15.990Z,101705.48
2018-07-14T07:10:44.840Z,101716.19
2018-07-14T07:13:13.744Z,101711.41
2018-07-14T07:15:42.585Z,101711.94
2018-07-14T07:18:11.422Z,101708.08
2018-07-14T07:20:40.253Z,101707.77
2018-07-14T07:23:09.095Z,101706.86
2018-07-14T07:25:37.957Z,101709.92
2018-07-14T07:28:09.987Z,101707.75
2018-07-14T07:30:38.837Z,101710.61
2018-07-14T07:33:07.654Z,101703.67
2018-07-14T07:35:36.513Z,101704.91
2018-07-14T07:38:05.357Z,101700.61
2018-07-14T07:40:34.181Z,101707.61
2018-07-14T07:43:02.998Z,101697.95
2018-07-14T07:45:31.826Z,101700.42
2018-07-14T07:48:00.655Z,101701.84
2018-07-14T07:50:46.937Z,101703.58
2018-07-14T07:53:15.790Z,101701.64
2018-07-14T07:55:44.671Z,101697.50
2018-07-14T07:58:13.468Z,101695.55
2018-07-14T08:00:42.288Z,101693.36
2018-07-14T08:03:11.114Z,101695.48
2018-07-14T08:05:39.950Z,101687.48
2018-07-14T08:08:08.747Z,101697.10
2018-07-14T08:10:37.593Z,101688.08
2018-07-14T08:13:09.364Z,101690.02
2018-07-14T08:15:38.198Z,101696.75
2018-07-14T08:18:06.992Z,101698.92
2018-07-14T08:20:35.830Z,101701.98
2018-07-14T08:23:04.778Z,101707.55
2018-07-14T08:25:33.530Z,101705.32
2018-07-14T08:28:02.405Z,101701.86
2018-07-14T08:30:31.190Z,101705.72
2018-07-14T08:33:00.019Z,101693.72
2018-07-14T08:35:32.381Z,101694.52
2018-07-14T08:38:01.245Z,101685.98
2018-07-14T08:40:30.026Z,101687.50
2018-07-14T08:42:58.891Z,101685.66
2018-07-14T08:45:27.712Z,101690.31
2018-07-14T08:47:56.546Z,101690.89
2018-07-14T08:50:25.464Z,101682.69
2018-07-14T08:52:54.252Z,101678.48
2018-07-14T08:55:23.137Z,101680.14
2018-07-14T08:57:51.970Z,101681.94
2018-07-14T09:00:20.848Z,101689.70
2018-07-14T09:02:49.692Z,101685.67
2018-07-14T09:05:18.509Z,101683.25
2018-07-14T09:07:47.379Z,101679.80
2018-07-14T09:10:16.196Z,101674.89
2018-07-14T09:12:45.020Z,101678.55
2018-07-14T09:15:13.865Z,101674.88
2018-07-14T09:17:42.703Z,101683.34
2018-07-14T09:20:47.053Z,101683.34
2018-07-14T09:23:15.864Z,101673.55
2018-07-14T09:25:44.718Z,101669.67
2018-07-14T09:28:13.592Z,101673.98
2018-07-14T09:30:42.407Z,101671.96
2018-07-14T09:33:11.240Z,101669.47
2018-07-14T09:35:40.147Z,101668.74
2018-07-14T09:38:08.976Z,101671.91
2018-07-14T09:40:37.799Z,101666.67
2018-07-14T09:43:24.198Z,101664.78
2018-07-14T09:45:53.013Z,101665.13
2018-07-14T09:48:21.860Z,101664.57
2018-07-14T09:50:50.700Z,101664.53
2018-07-14T09:53:19.526Z,101659.36
2018-07-14T09:55:48.486Z,101652.87
2018-07-14T09:58:17.258Z,101659.74
2018-07-14T10:01:03.883Z,101653.46
2018-07-14T10:03:32.856Z,101653.55
2018-07-14T10:06:01.547Z,101655.20
2018-07-14T10:08:31.291Z,101648.05
2018-07-14T10:11:00.133Z,101646.77
2018-07-14T10:13:29.188Z,101645.91
2018-07-14T10:16:03.931Z,101639.57
2018-07-14T10:18:33.114Z,101640.00
2018-07-14T10:21:02.248Z,101643.73
2018-07-14T10:23:31.202Z,101641.38
2018-07-14T10:26:00.299Z,101631.47
2018-07-14T10:28:29.331Z,101631.82
2018-07-14T10:30:58.539Z,101632.05
2018-07-14T10:33:29.109Z,101626.95
2018-07-14T10:35:58.187Z,101630.38
2018-07-14T10:38:27.329Z,101627.22
2018-07-14T10:41:01.661Z,101617.61
2018-07-14T10:43:30.614Z,101616.20
2018-07-14T10:45:59.587Z,101611.73
2018-07-14T10:48:28.837Z,101616.84
2018-07-14T10:50:57.928Z,101616.57
2018-07-14T10:53:26.905Z,101614.72
2018-07-14T10:55:55.927Z,101606.70
2018-07-14T10:58:24.982Z,101604.77
2018-07-14T11:00:56.948Z,101601.36
2018-07-14T11:03:29.274Z,101592.08
2018-07-14T11:05:58.278Z,101595.27
2018-07-14T11:08:27.116Z,101590.36
2018-07-14T11:10:56.171Z,101580.38
2018-07-14T11:13:27.851Z,101577.09
2018-07-14T11:15:59.470Z,101579.84
2018-07-14T11:18:28.522Z,101581.25
2018-07-14T11:20:57.577Z,101583.79
2018-07-14T11:23:26.597Z,101584.19
2018-07-14T11:25:57.504Z,101578.55
2018-07-14T11:28:26.879Z,101577.16
2018-07-14T11:30:55.861Z,101572.55
2018-07-14T11:33:25.427Z,101569.91
2018-07-14T11:35:54.556Z,101561.11
2018-07-14T11:38:26.250Z,101561.41
2018-07-14T11:40:55.450Z,101567.36
2018-07-14T11:43:27.258Z,101566.89
2018-07-14T11:45:56.317Z,101554.80
2018-07-14T11:48:28.597Z,101554.84
2018-07-14T11:50:57.511Z,101555.03
2018-07-14T11:53:26.540Z,101554.38
2018-07-14T11:55:55.551Z,101546.76
2018-07-14T11:58:27.128Z,101557.05
2018-07-14T12:00:59.019Z,101546.13
2018-07-14T12:03:28.143Z,101553.23
2018-07-14T12:05:57.239Z,101545.97
2018-07-14T12:08:28.271Z,101541.06
2018-07-14T12:10:57.547Z,101540.34
2018-07-14T12:13:26.806Z,101541.58
2018-07-14T12:15:56.004Z,101528.66
2018-07-14T12:18:27.652Z,101529.81
2018-07-14T12:20:56.759Z,101525.73
2018-07-14T12:23:25.928Z,101523.34
2018-07-14T12:25:54.987Z,101522.94
2018-07-14T12:28:26.986Z,101521.08
2018-07-14T12:30:56.109Z,101520.95
2018-07-14T12:33:28.743Z,101521.22
2018-07-14T12:35:57.861Z,101511.25
2018-07-14T12:38:27.019Z,101517.53
2018-07-14T12:40:56.115Z,101514.84
2018-07-14T12:43:25.411Z,101516.13
2018-07-14T12:45:54.501Z,101512.66
2018-07-14T12:48:23.554Z,101513.20
2018-07-14T12:50:52.724Z,101502.62
2018-07-14T12:53:21.820Z,101496.88
2018-07-14T12:55:51.198Z,101491.73
2018-07-14T12:58:20.228Z,101497.99
2018-07-14T13:00:49.424Z,101498.47
2018-07-14T13:03:18.610Z,101496.89
2018-07-14T13:05:47.890Z,101496.26
2018-07-14T13:08:16.876Z,101502.24
2018-07-14T13:10:45.864Z,101495.70
2018-07-14T13:13:15.173Z,101493.36
2018-07-14T13:15:44.183Z,101492.23
2018-07-14T13:18:13.396Z,101487.83
2018-07-14T13:20:42.488Z,101485.63
2018-07-14T13:23:11.685Z,101481.48
2018-07-14T13:25:40.908Z,101483.66
2018-07-14T13:28:09.927Z,101473.98
2018-07-14T13:30:38.958Z,101474.77
2018-07-14T13:33:08.080Z,101478.30
2018-07-14T13:35:37.130Z,101469.22
2018-07-14T13:38:06.242Z,101465.88
2018-07-14T13:40:35.321Z,101474.95
2018-07-14T13:43:04.490Z,101469.56
2018-07-14T13:45:36.337Z,101467.31
2018-07-14T13:48:05.255Z,101460.95
2018-07-14T13:50:34.215Z,101463.58
2018-07-14T13:53:03.301Z,101463.87
2018-07-14T13:55:32.419Z,101466.95
2018-07-14T13:58:01.411Z,101459.31
2018-07-14T14:00:30.286Z,101448.16
2018-07-14T14:02:59.459Z,101447.31
2018-07-14T14:05:28.438Z,101456.66
2018-07-14T14:07:57.555Z,101452.51
2018-07-14T14:10:26.746Z,101453.20
2018-07-14T14:12:55.859Z,101453.37
2018-07-14T14:15:24.826Z,101432.03
2018-07-14T14:17:53.946Z,101435.05
2018-07-14T14:20:23.078Z,101428.67
2018-07-14T14:22:52.109Z,101432.47
2018-07-14T14:25:24.476Z,101430.84
2018-07-14T14:27:53.619Z,101432.30
2018-07-14T14:30:22.700Z,101427.75
2018-07-14T14:32:54.355Z,101428.27
2018-07-14T14:35:23.416Z,101425.49
2018-07-14T14:37:52.460Z,101427.63
2018-07-14T14:40:21.524Z,101426.78
2018-07-14T14:42:50.611Z,101421.20
2018-07-14T14:45:19.864Z,101415.75
2018-07-14T14:47:51.604Z,101411.31
2018-07-14T14:50:20.716Z,101413.48
2018-07-14T14:52:52.236Z,101407.30
2018-07-14T14:55:21.281Z,101419.23
2018-07-14T14:57:50.242Z,101417.73
2018-07-14T15:00:19.311Z,101418.58
2018-07-14T15:02:51.151Z,101408.36
2018-07-14T15:05:20.995Z,101407.14
2018-07-14T15:07:49.957Z,101410.86
2018-07-14T15:10:18.991Z,101407.46
2018-07-14T15:12:50.967Z,101406.78
2018-07-14T15:15:19.973Z,101406.53
2018-07-14T15:17:49.085Z,101406.50
2018-07-14T15:20:18.170Z,101411.78
2018-07-14T15:22:47.354Z,101407.34
2018-07-14T15:25:16.489Z,101404.09
2018-07-14T15:27:45.703Z,101402.52
2018-07-14T15:30:14.769Z,101397.77
2018-07-14T15:32:43.906Z,101403.00
2018-07-14T15:35:12.838Z,101398.34
2018-07-14T15:37:41.890Z,101400.06
2018-07-14T15:40:10.980Z,101397.38
2018-07-14T15:42:40.091Z,101387.60
2018-07-14T15:45:09.163Z,101393.04
2018-07-14T15:47:38.252Z,101396.25
2018-07-14T15:50:07.358Z,101398.38
2018-07-14T15:52:36.482Z,101400.98
2018-07-14T15:55:08.475Z,101404.90
2018-07-14T15:57:37.531Z,101402.11
2018-07-14T16:00:07.005Z,101408.48
2018-07-14T16:02:36.152Z,101408.34
2018-07-14T16:05:08.092Z,101407.80
2018-07-14T16:07:37.205Z,101409.48
2018-07-14T16:10:06.395Z,101408.43
2018-07-14T16:12:38.359Z,101408.40
2018-07-14T16:15:07.372Z,101398.36
2018-07-14T16:17:36.491Z,101404.63
2018-07-14T16:20:05.499Z,101407.13
2018-07-14T16:22:34.638Z,101402.89
2018-07-14T16:25:03.797Z,101401.80
2018-07-14T16:27:41.870Z,101407.77
2018-07-14T16:30:10.953Z,101397.42
2018-07-14T16:32:40.254Z,101402.64
2018-07-14T16:35:09.238Z,101401.80
2018-07-14T16:37:38.307Z,101396.52
2018-07-14T16:40:07.395Z,101400.88
2018-07-14T16:42:36.347Z,101405.81
2018-07-14T16:45:05.962Z,101396.33
2018-07-14T16:47:35.017Z,101400.24
2018-07-14T16:50:06.253Z,101390.77
2018-07-14T16:52:36.095Z,101387.84
2018-07-14T16:55:05.255Z,101389.98
2018-07-14T16:57:34.459Z,101389.68
2018-07-14T17:00:03.318Z,101385.27
2018-07-14T17:02:32.420Z,101390.33
2018-07-14T17:05:01.331Z,101387.03
2018-07-14T17:07:30.389Z,101390.39
2018-07-14T17:10:01.658Z,101387.30
2018-07-14T17:12:30.732Z,101385.56
2018-07-14T17:15:02.175Z,101391.69
2018-07-14T17:17:31.251Z,101391.48
2018-07-14T17:20:00.346Z,101382.84
2018-07-14T17:22:29.389Z,101387.36
2018-07-14T17:24:58.432Z,101387.82
2018-07-14T17:27:30.313Z,101391.02
2018-07-14T17:29:59.331Z,101383.75
2018-07-14T17:32:28.298Z,101385.53
2018-07-14T17:34:57.503Z,101380.16
2018-07-14T17:37:26.674Z,101384.26
2018-07-14T17:39:55.741Z,101375.83
2018-07-14T17:42:24.732Z,101383.02
2018-07-14T17:44:53.943Z,101384.03
2018-07-14T17:47:22.838Z,101384.03
2018-07-14T17:49:51.790Z,101386.37
2018-07-14T17:52:20.830Z,101384.59
2018-07-14T17:54:49.981Z,101378.56
2018-07-14T17:57:19.211Z,101378.56
2018-07-14T17:59:48.402Z,101381.34
2018-07-14T18:02:17.586Z,101375.66
2018-07-14T18:04:46.664Z,101380.78
2018-07-14T18:07:24.323Z,101381.50
2018-07-14T18:09:53.346Z,101381.02
2018-07-14T18:12:22.826Z,101385.75
2018-07-14T18:14:51.829Z,101381.11
2018-07-14T18:17:23.459Z,101388.06
2018-07-14T18:19:52.518Z,101386.89
2018-07-14T18:22:21.483Z,101391.33
2018-07-14T18:24:50.636Z,101386.61
2018-07-14T18:27:19.700Z,101386.97
2018-07-14T18:29:49.032Z,101377.92
2018-07-14T18:32:18.192Z,101381.21
2018-07-14T18:34:47.268Z,101385.49
2018-07-14T18:37:16.321Z,101396.63
2018-07-14T18:39:45.373Z,101386.04
2018-07-14T18:42:14.598Z,101387.73
2018-07-14T18:44:46.057Z,101385.31
2018-07-14T18:47:17.656Z,101385.40
2018-07-14T18:49:46.746Z,101388.88
2018-07-14T18:52:15.972Z,101394.92
2018-07-14T18:54:45.134Z,101389.39
2018-07-14T18:57:14.416Z,101391.60
2018-07-14T18:59:43.596Z,101388.48
2018-07-14T19:02:12.855Z,101397.41
2018-07-14T19:04:41.958Z,101396.84
2018-07-14T19:07:11.101Z,101392.48
2018-07-14T19:09:40.327Z,101396.48
2018-07-14T19:12:09.165Z,101397.55
2018-07-14T19:14:38.041Z,101394.94
2018-07-14T19:17:06.874Z,101395.53
2018-07-14T19:19:35.851Z,101397.72
2018-07-14T19:22:04.683Z,101395.31
2018-07-14T19:24:33.522Z,101398.13
2018-07-14T19:27:02.347Z,101399.84
2018-07-14T19:29:34.078Z,101404.79
2018-07-14T19:32:02.886Z,101401.38
2018-07-14T19:34:31.750Z,101401.20
2018-07-14T19:37:00.587Z,101409.55
2018-07-14T19:39:29.412Z,101400.94
2018-07-14T19:41:58.252Z,101409.38
2018-07-14T19:44:27.078Z,101405.34
2018-07-14T19:46:56.054Z,101407.82
2018-07-14T19:49:24.869Z,101412.70
2018-07-14T19:55:30.576Z,101413.45
2018-07-14T19:57:57.582Z,101417.17
2018-07-14T20:00:26.431Z,101417.16
2018-07-14T20:02:55.267Z,101417.92
2018-07-14T20:05:24.120Z,101416.50
2018-07-14T20:07:52.958Z,101421.64
2018-07-14T20:10:21.800Z,101426.27
2018-07-14T20:12:50.656Z,101428.50
2018-07-14T20:15:55.029Z,101430.86
2018-07-14T20:18:23.864Z,101431.38
2018-07-14T20:20:52.741Z,101431.33
2018-07-14T20:23:21.585Z,101433.41
2018-07-14T20:25:50.418Z,101436.56
2018-07-14T20:28:19.252Z,101434.17
2018-07-14T20:30:48.088Z,101432.16
2018-07-14T20:33:16.935Z,101437.99
2018-07-14T20:35:45.768Z,101438.80
2018-07-14T20:38:14.687Z,101432.66
2018-07-14T20:40:43.533Z,101437.52
2018-07-14T20:43:12.354Z,101445.70
2018-07-14T20:45:41.226Z,101438.11
2018-07-14T20:48:10.089Z,101445.74
2018-07-14T20:50:38.932Z,101448.83
2018-07-14T20:53:07.820Z,101442.08
2018-07-14T20:55:36.865Z,101445.09
2018-07-14T20:58:05.920Z,101441.78
2018-07-14T21:00:36.553Z,101447.20
2018-07-14T21:03:05.399Z,101442.97
2018-07-14T21:05:34.223Z,101438.73
2018-07-14T21:08:03.197Z,101442.40
2018-07-14T21:10:32.070Z,101440.11
2018-07-14T21:13:00.912Z,101437.98
2018-07-14T21:15:29.780Z,101442.87
2018-07-14T21:17:58.643Z,101439.89
2018-07-14T21:20:27.461Z,101441.68
2018-07-14T21:22:57.615Z,101435.64
2018-07-14T21:25:26.498Z,101443.92
2018-07-14T21:27:55.354Z,101446.78
2018-07-14T21:30:24.190Z,101444.55
2018-07-14T21:32:52.999Z,101443.06
2018-07-14T21:35:21.865Z,101445.34
2018-07-14T21:37:50.695Z,101442.92
2018-07-14T21:40:19.695Z,101450.20
2018-07-14T21:42:48.510Z,101451.98
2018-07-14T21:45:18.932Z,101445.12
2018-07-14T21:47:47.764Z,101447.41
2018-07-14T21:50:16.635Z,101446.70
2018-07-14T21:52:45.448Z,101445.20
2018-07-14T21:55:14.280Z,101449.53
2018-07-14T21:57:43.181Z,101449.24
2018-07-14T22:00:45.138Z,101448.03
2018-07-14T22:03:13.989Z,101450.72
2018-07-14T22:05:45.980Z,101456.63
2018-07-14T22:08:14.852Z,101461.86
2018-07-14T22:10:43.699Z,101458.66
2018-07-14T22:13:12.539Z,101461.78
2018-07-14T22:15:41.367Z,101455.98
2018-07-14T22:18:10.222Z,101459.80
2018-07-14T22:20:39.059Z,101462.11
2018-07-14T22:23:07.907Z,101464.34
2018-07-14T22:25:36.740Z,101464.86
2018-07-14T22:31:34.708Z,101466.71
2018-07-14T22:34:03.553Z,101465.40
2018-07-14T22:36:32.419Z,101467.66
2018-07-14T22:39:01.247Z,101466.20
2018-07-14T22:41:30.221Z,101467.27
2018-07-14T22:43:59.061Z,101466.81
2018-07-14T22:46:27.906Z,101470.81
2018-07-14T22:48:56.780Z,101465.38
2018-07-14T22:52:21.159Z,101467.78
2018-07-14T22:54:49.982Z,101472.86
2018-07-14T22:57:18.852Z,101471.14
2018-07-14T22:59:47.660Z,101472.62
2018-07-14T23:02:16.505Z,101476.09
2018-07-14T23:04:45.350Z,101478.13
2018-07-14T23:07:14.189Z,101470.26
2018-07-14T23:09:43.037Z,101470.34
2018-07-14T23:12:11.846Z,101472.14
2018-07-14T23:14:46.748Z,101474.89
2018-07-14T23:17:15.563Z,101479.88
2018-07-14T23:19:44.391Z,101474.92
2018-07-14T23:22:13.224Z,101470.67
2018-07-14T23:24:42.069Z,101482.19
2018-07-14T23:27:10.882Z,101470.67
2018-07-14T23:29:39.743Z,101478.78
2018-07-14T23:32:08.609Z,101474.70
2018-07-14T23:34:37.418Z,101472.12
2018-07-14T23:37:23.973Z,101469.55
2018-07-14T23:39:52.807Z,101473.86
2018-07-14T23:42:21.696Z,101477.87
2018-07-14T23:44:50.515Z,101470.38
2018-07-14T23:47:19.376Z,101470.38
2018-07-14T23:49:48.235Z,101463.53
2018-07-14T23:52:17.083Z,101466.63
2018-07-14T23:54:45.897Z,101473.50
2018-07-14T23:57:14.714Z,101471.24
2018-07-14T23:59:43.582Z,101473.03
